Pagina principale
METAR-TAF:

METAR-TAF

Aeroporti :

Aeroporto Internazionale Simón Bolívar

Caracas, Venezuela

latitudine: 10-36N, longitudine: 066-59W, altezza: 43 m

Osservazione

Il bollettino è stato emesso 11 ore e 28 minuti fa, alle 21:00 UTC
Vento 4 kt da nord
Temperature 29°C
Umidità 79%
Pressione 1015 hPa
Visibilità 10 km o più
Poco nuvoloso ad un'altezza di 1600 ft

METAR: SVMI 172100Z 36004KT 9999 FEW016 29/25 Q1015

Ora: 04:28 (08:28 UTC)

Previsione

Il bollettino è stato emesso 4 ore e 28 minuti fa, alle 04:00 UTC
Previsione valida dal 18 alle 06 UTC al 19 alle 06 UTC
Vento kt da nord
Visibilità 10 km o più
Nubi sparse ad un'altezza di 1600 ft
Temporaneamente
dal 18 alle 06 UTC al 18 alle 10 UTC
Visibilità: 8000 m
Nuvoloso ad un'altezza di 1600 ft
pioviggine

TAF: SVMI 180400Z 1806/1906 00000KT 9999 SCT016 TX33/18Z TN25/09Z TEMPO 1806/1810 8000 DZ BKN016

Osservazioni e previsioni meteorologiche di più di 4000 aeroporti (messaggi METAR e TAF).

Le stazioni disponibili sono rappresentate dai dischi gialli e rossi sulla carta.

Puntare il mouse per vedere il nome della stazione.

Clicca sopra per visualizzare le osservazioni e previsioni meteorologiche.

Per cambiare la mappa : fare clic sui pulsanti verdi con una croce nera per ingrandire, il pulsante verde con un trattino per diminuire, o sulla freccia verde per le mappe adiacenti.


METAR-TAF: